sensor_id;sensor_type;location;lat;lon;timestamp;P1;durP1;ratioP1;P2;durP2;ratioP2
8986;SDS011;4529;51.360;12.474;2023-03-31T00:01:20;1.73;;;1.60;;
8986;SDS011;4529;51.360;12.474;2023-03-31T00:06:24;2.93;;;1.60;;
8986;SDS011;4529;51.360;12.474;2023-03-31T00:11:29;1.57;;;1.30;;
8986;SDS011;4529;51.360;12.474;2023-03-31T00:16:33;2.23;;;1.47;;
8986;SDS011;4529;51.360;12.474;2023-03-31T00:21:39;3.07;;;1.50;;
8986;SDS011;4529;51.360;12.474;2023-03-31T00:26:42;2.83;;;1.60;;
8986;SDS011;4529;51.360;12.474;2023-03-31T00:31:45;4.10;;;1.40;;
8986;SDS011;4529;51.360;12.474;2023-03-31T00:36:49;2.67;;;1.63;;
8986;SDS011;4529;51.360;12.474;2023-03-31T00:41:52;3.23;;;1.70;;
8986;SDS011;4529;51.360;12.474;2023-03-31T00:47:04;2.13;;;1.60;;
8986;SDS011;4529;51.360;12.474;2023-03-31T00:52:22;2.10;;;1.70;;
8986;SDS011;4529;51.360;12.474;2023-03-31T00:57:35;2.57;;;1.70;;
8986;SDS011;4529;51.360;12.474;2023-03-31T01:02:38;2.67;;;1.90;;
8986;SDS011;4529;51.360;12.474;2023-03-31T01:07:43;2.40;;;1.67;;
8986;SDS011;4529;51.360;12.474;2023-03-31T01:12:46;5.23;;;1.70;;
8986;SDS011;4529;51.360;12.474;2023-03-31T01:17:49;4.47;;;1.60;;
8986;SDS011;4529;51.360;12.474;2023-03-31T01:23:13;2.60;;;1.67;;
8986;SDS011;4529;51.360;12.474;2023-03-31T01:28:49;2.70;;;1.57;;
8986;SDS011;4529;51.360;12.474;2023-03-31T01:34:18;2.13;;;1.50;;
8986;SDS011;4529;51.360;12.474;2023-03-31T01:45:27;3.47;;;1.80;;
8986;SDS011;4529;51.360;12.474;2023-03-31T01:50:43;3.73;;;1.40;;
8986;SDS011;4529;51.360;12.474;2023-03-31T02:01:40;2.80;;;1.40;;
8986;SDS011;4529;51.360;12.474;2023-03-31T02:06:39;5.33;;;1.60;;
8986;SDS011;4529;51.360;12.474;2023-03-31T02:11:42;3.43;;;1.60;;
8986;SDS011;4529;51.360;12.474;2023-03-31T02:16:45;2.23;;;1.40;;
8986;SDS011;4529;51.360;12.474;2023-03-31T02:21:48;2.77;;;1.60;;
8986;SDS011;4529;51.360;12.474;2023-03-31T02:26:53;4.23;;;1.73;;
8986;SDS011;4529;51.360;12.474;2023-03-31T02:32:14;4.27;;;1.73;;
8986;SDS011;4529;51.360;12.474;2023-03-31T02:37:25;4.47;;;1.60;;
8986;SDS011;4529;51.360;12.474;2023-03-31T02:42:28;2.10;;;1.50;;
8986;SDS011;4529;51.360;12.474;2023-03-31T02:47:32;2.87;;;1.63;;
8986;SDS011;4529;51.360;12.474;2023-03-31T02:58:09;4.10;;;1.60;;
8986;SDS011;4529;51.360;12.474;2023-03-31T03:03:29;3.50;;;1.60;;
8986;SDS011;4529;51.360;12.474;2023-03-31T03:09:19;3.87;;;1.57;;
8986;SDS011;4529;51.360;12.474;2023-03-31T03:14:54;3.60;;;1.73;;
8986;SDS011;4529;51.360;12.474;2023-03-31T03:20:17;3.30;;;1.60;;
8986;SDS011;4529;51.360;12.474;2023-03-31T03:25:19;4.43;;;1.57;;
8986;SDS011;4529;51.360;12.474;2023-03-31T03:30:23;4.37;;;1.67;;
8986;SDS011;4529;51.360;12.474;2023-03-31T03:35:26;4.53;;;1.77;;
8986;SDS011;4529;51.360;12.474;2023-03-31T03:40:30;2.17;;;1.70;;
8986;SDS011;4529;51.360;12.474;2023-03-31T03:45:33;3.37;;;1.83;;
8986;SDS011;4529;51.360;12.474;2023-03-31T03:50:37;5.80;;;1.90;;
8986;SDS011;4529;51.360;12.474;2023-03-31T03:55:40;3.07;;;1.63;;
8986;SDS011;4529;51.360;12.474;2023-03-31T04:00:44;1.97;;;1.60;;
8986;SDS011;4529;51.360;12.474;2023-03-31T04:05:47;3.27;;;1.50;;
8986;SDS011;4529;51.360;12.474;2023-03-31T04:10:51;3.13;;;1.60;;
8986;SDS011;4529;51.360;12.474;2023-03-31T04:15:55;2.70;;;1.60;;
8986;SDS011;4529;51.360;12.474;2023-03-31T04:20:59;3.30;;;1.60;;
8986;SDS011;4529;51.360;12.474;2023-03-31T04:26:04;2.23;;;1.47;;
8986;SDS011;4529;51.360;12.474;2023-03-31T04:31:08;2.80;;;1.57;;
8986;SDS011;4529;51.360;12.474;2023-03-31T04:36:11;2.20;;;1.50;;
8986;SDS011;4529;51.360;12.474;2023-03-31T04:41:16;2.90;;;1.60;;
8986;SDS011;4529;51.360;12.474;2023-03-31T04:46:19;2.63;;;1.47;;
8986;SDS011;4529;51.360;12.474;2023-03-31T04:51:24;4.57;;;1.50;;
8986;SDS011;4529;51.360;12.474;2023-03-31T04:56:28;3.97;;;1.60;;
8986;SDS011;4529;51.360;12.474;2023-03-31T05:01:32;2.47;;;1.43;;
8986;SDS011;4529;51.360;12.474;2023-03-31T05:06:36;2.00;;;1.60;;
8986;SDS011;4529;51.360;12.474;2023-03-31T05:11:40;2.13;;;1.30;;
8986;SDS011;4529;51.360;12.474;2023-03-31T05:16:44;3.83;;;1.60;;
8986;SDS011;4529;51.360;12.474;2023-03-31T05:21:48;3.07;;;1.40;;
8986;SDS011;4529;51.360;12.474;2023-03-31T05:26:53;3.33;;;1.70;;
8986;SDS011;4529;51.360;12.474;2023-03-31T05:31:57;3.57;;;1.60;;
8986;SDS011;4529;51.360;12.474;2023-03-31T05:37:01;3.67;;;1.57;;
8986;SDS011;4529;51.360;12.474;2023-03-31T05:42:05;4.47;;;1.63;;
8986;SDS011;4529;51.360;12.474;2023-03-31T05:47:09;2.40;;;1.47;;
8986;SDS011;4529;51.360;12.474;2023-03-31T05:52:13;2.37;;;1.13;;
8986;SDS011;4529;51.360;12.474;2023-03-31T05:57:17;2.83;;;1.40;;
8986;SDS011;4529;51.360;12.474;2023-03-31T06:02:20;3.73;;;1.23;;
8986;SDS011;4529;51.360;12.474;2023-03-31T06:07:24;3.37;;;1.43;;
8986;SDS011;4529;51.360;12.474;2023-03-31T06:12:28;2.67;;;1.20;;
8986;SDS011;4529;51.360;12.474;2023-03-31T06:17:32;3.40;;;1.80;;
8986;SDS011;4529;51.360;12.474;2023-03-31T06:22:35;4.83;;;1.80;;
8986;SDS011;4529;51.360;12.474;2023-03-31T06:27:39;6.03;;;1.57;;
8986;SDS011;4529;51.360;12.474;2023-03-31T06:32:44;3.70;;;1.80;;
8986;SDS011;4529;51.360;12.474;2023-03-31T06:37:48;1.93;;;1.70;;
8986;SDS011;4529;51.360;12.474;2023-03-31T06:42:52;2.57;;;1.80;;
8986;SDS011;4529;51.360;12.474;2023-03-31T06:47:56;3.47;;;1.60;;
8986;SDS011;4529;51.360;12.474;2023-03-31T06:53:00;2.60;;;1.60;;
8986;SDS011;4529;51.360;12.474;2023-03-31T06:58:04;2.33;;;1.50;;
8986;SDS011;4529;51.360;12.474;2023-03-31T07:03:08;2.07;;;1.57;;
8986;SDS011;4529;51.360;12.474;2023-03-31T07:08:12;5.90;;;1.80;;
8986;SDS011;4529;51.360;12.474;2023-03-31T07:13:17;4.03;;;1.60;;
8986;SDS011;4529;51.360;12.474;2023-03-31T07:18:21;3.33;;;1.60;;
8986;SDS011;4529;51.360;12.474;2023-03-31T07:23:25;3.13;;;1.70;;
8986;SDS011;4529;51.360;12.474;2023-03-31T07:28:29;4.47;;;1.90;;
8986;SDS011;4529;51.360;12.474;2023-03-31T07:33:33;3.03;;;1.73;;
8986;SDS011;4529;51.360;12.474;2023-03-31T07:38:38;3.67;;;2.10;;
8986;SDS011;4529;51.360;12.474;2023-03-31T07:43:42;2.67;;;1.53;;
8986;SDS011;4529;51.360;12.474;2023-03-31T07:48:46;2.17;;;1.70;;
8986;SDS011;4529;51.360;12.474;2023-03-31T07:53:50;2.73;;;1.60;;
8986;SDS011;4529;51.360;12.474;2023-03-31T07:58:54;3.90;;;1.83;;
8986;SDS011;4529;51.360;12.474;2023-03-31T08:03:58;4.77;;;2.10;;
8986;SDS011;4529;51.360;12.474;2023-03-31T08:09:02;4.10;;;2.10;;
8986;SDS011;4529;51.360;12.474;2023-03-31T08:14:06;3.53;;;1.70;;
8986;SDS011;4529;51.360;12.474;2023-03-31T08:19:10;5.60;;;1.70;;
8986;SDS011;4529;51.360;12.474;2023-03-31T08:24:14;4.77;;;1.80;;
8986;SDS011;4529;51.360;12.474;2023-03-31T08:29:18;3.80;;;1.90;;
8986;SDS011;4529;51.360;12.474;2023-03-31T08:34:21;3.67;;;1.80;;
8986;SDS011;4529;51.360;12.474;2023-03-31T08:39:26;5.73;;;1.97;;
8986;SDS011;4529;51.360;12.474;2023-03-31T08:44:31;2.93;;;1.80;;
8986;SDS011;4529;51.360;12.474;2023-03-31T08:49:38;2.67;;;1.87;;
8986;SDS011;4529;51.360;12.474;2023-03-31T08:54:57;4.03;;;1.70;;
8986;SDS011;4529;51.360;12.474;2023-03-31T08:59:59;2.53;;;1.80;;
8986;SDS011;4529;51.360;12.474;2023-03-31T09:11:02;2.00;;;1.60;;
8986;SDS011;4529;51.360;12.474;2023-03-31T09:16:03;3.57;;;1.97;;
8986;SDS011;4529;51.360;12.474;2023-03-31T09:21:21;4.23;;;1.97;;
8986;SDS011;4529;51.360;12.474;2023-03-31T09:26:52;1.70;;;1.60;;
8986;SDS011;4529;51.360;12.474;2023-03-31T09:37:20;2.43;;;1.83;;
8986;SDS011;4529;51.360;12.474;2023-03-31T09:42:24;3.87;;;1.90;;
8986;SDS011;4529;51.360;12.474;2023-03-31T09:47:36;3.13;;;2.00;;
8986;SDS011;4529;51.360;12.474;2023-03-31T09:52:48;3.20;;;2.10;;
8986;SDS011;4529;51.360;12.474;2023-03-31T09:57:52;5.97;;;1.80;;
8986;SDS011;4529;51.360;12.474;2023-03-31T10:02:56;1.70;;;1.60;;
8986;SDS011;4529;51.360;12.474;2023-03-31T10:13:25;3.03;;;1.87;;
8986;SDS011;4529;51.360;12.474;2023-03-31T10:18:35;4.37;;;2.27;;
8986;SDS011;4529;51.360;12.474;2023-03-31T10:23:34;5.07;;;2.27;;
8986;SDS011;4529;51.360;12.474;2023-03-31T10:28:38;2.90;;;1.60;;
8986;SDS011;4529;51.360;12.474;2023-03-31T10:33:44;3.23;;;1.97;;
8986;SDS011;4529;51.360;12.474;2023-03-31T10:38:45;2.73;;;1.90;;
8986;SDS011;4529;51.360;12.474;2023-03-31T10:43:50;5.33;;;1.90;;
8986;SDS011;4529;51.360;12.474;2023-03-31T10:48:52;4.37;;;2.00;;
8986;SDS011;4529;51.360;12.474;2023-03-31T10:53:59;4.20;;;1.73;;
8986;SDS011;4529;51.360;12.474;2023-03-31T10:59:04;4.17;;;1.77;;
8986;SDS011;4529;51.360;12.474;2023-03-31T11:04:46;3.03;;;1.97;;
8986;SDS011;4529;51.360;12.474;2023-03-31T11:10:36;3.23;;;1.87;;
8986;SDS011;4529;51.360;12.474;2023-03-31T11:21:22;4.67;;;1.83;;
8986;SDS011;4529;51.360;12.474;2023-03-31T11:48:25;2.67;;;2.03;;
8986;SDS011;4529;51.360;12.474;2023-03-31T11:53:31;3.37;;;2.10;;
8986;SDS011;4529;51.360;12.474;2023-03-31T11:58:40;2.77;;;2.00;;
8986;SDS011;4529;51.360;12.474;2023-03-31T12:09:00;3.73;;;1.97;;
8986;SDS011;4529;51.360;12.474;2023-03-31T12:14:23;2.57;;;1.90;;
8986;SDS011;4529;51.360;12.474;2023-03-31T12:24:52;2.70;;;2.00;;
8986;SDS011;4529;51.360;12.474;2023-03-31T12:29:56;6.40;;;2.00;;
8986;SDS011;4529;51.360;12.474;2023-03-31T12:40:32;2.40;;;2.10;;
8986;SDS011;4529;51.360;12.474;2023-03-31T12:57:03;2.70;;;1.60;;
8986;SDS011;4529;51.360;12.474;2023-03-31T13:12:27;2.13;;;1.93;;
8986;SDS011;4529;51.360;12.474;2023-03-31T13:17:36;1.90;;;1.60;;
8986;SDS011;4529;51.360;12.474;2023-03-31T13:22:37;2.27;;;1.70;;
8986;SDS011;4529;51.360;12.474;2023-03-31T13:27:50;1.70;;;1.60;;
8986;SDS011;4529;51.360;12.474;2023-03-31T13:33:01;2.27;;;1.60;;
8986;SDS011;4529;51.360;12.474;2023-03-31T13:38:25;1.60;;;1.50;;
8986;SDS011;4529;51.360;12.474;2023-03-31T14:05:44;1.13;;;1.10;;
8986;SDS011;4529;51.360;12.474;2023-03-31T14:11:19;0.90;;;0.90;;
8986;SDS011;4529;51.360;12.474;2023-03-31T14:16:24;1.20;;;1.10;;
8986;SDS011;4529;51.360;12.474;2023-03-31T14:21:36;1.40;;;1.30;;
8986;SDS011;4529;51.360;12.474;2023-03-31T14:32:15;1.80;;;1.37;;
8986;SDS011;4529;51.360;12.474;2023-03-31T14:37:23;1.30;;;1.20;;
8986;SDS011;4529;51.360;12.474;2023-03-31T14:42:28;2.03;;;1.30;;
8986;SDS011;4529;51.360;12.474;2023-03-31T14:47:38;2.83;;;1.47;;
8986;SDS011;4529;51.360;12.474;2023-03-31T14:52:48;1.63;;;1.20;;
8986;SDS011;4529;51.360;12.474;2023-03-31T14:57:55;0.80;;;0.80;;
8986;SDS011;4529;51.360;12.474;2023-03-31T15:02:59;1.27;;;0.90;;
8986;SDS011;4529;51.360;12.474;2023-03-31T15:08:04;0.93;;;0.90;;
8986;SDS011;4529;51.360;12.474;2023-03-31T15:13:07;2.60;;;0.90;;
8986;SDS011;4529;51.360;12.474;2023-03-31T15:18:13;2.10;;;0.80;;
8986;SDS011;4529;51.360;12.474;2023-03-31T15:23:23;3.33;;;1.07;;
8986;SDS011;4529;51.360;12.474;2023-03-31T15:28:26;1.27;;;1.10;;
8986;SDS011;4529;51.360;12.474;2023-03-31T15:33:32;1.50;;;1.10;;
8986;SDS011;4529;51.360;12.474;2023-03-31T15:38:35;2.87;;;1.30;;
8986;SDS011;4529;51.360;12.474;2023-03-31T15:43:46;1.90;;;1.13;;
8986;SDS011;4529;51.360;12.474;2023-03-31T15:48:49;2.83;;;1.43;;
8986;SDS011;4529;51.360;12.474;2023-03-31T15:53:52;2.83;;;1.13;;
8986;SDS011;4529;51.360;12.474;2023-03-31T15:58:56;1.80;;;1.50;;
8986;SDS011;4529;51.360;12.474;2023-03-31T16:04:06;1.30;;;1.20;;
8986;SDS011;4529;51.360;12.474;2023-03-31T16:09:08;2.77;;;1.13;;
8986;SDS011;4529;51.360;12.474;2023-03-31T16:14:13;1.20;;;1.10;;
8986;SDS011;4529;51.360;12.474;2023-03-31T16:19:20;1.43;;;1.33;;
8986;SDS011;4529;51.360;12.474;2023-03-31T16:24:27;1.67;;;1.20;;
8986;SDS011;4529;51.360;12.474;2023-03-31T16:29:33;1.30;;;1.20;;
8986;SDS011;4529;51.360;12.474;2023-03-31T16:40:01;1.20;;;1.10;;
8986;SDS011;4529;51.360;12.474;2023-03-31T16:45:05;2.87;;;1.37;;
8986;SDS011;4529;51.360;12.474;2023-03-31T16:50:10;1.60;;;1.10;;
8986;SDS011;4529;51.360;12.474;2023-03-31T16:55:14;1.17;;;1.10;;
8986;SDS011;4529;51.360;12.474;2023-03-31T17:00:18;1.93;;;1.77;;
8986;SDS011;4529;51.360;12.474;2023-03-31T17:05:21;1.30;;;1.20;;
8986;SDS011;4529;51.360;12.474;2023-03-31T17:10:25;4.13;;;2.00;;
8986;SDS011;4529;51.360;12.474;2023-03-31T17:15:30;2.30;;;1.47;;
8986;SDS011;4529;51.360;12.474;2023-03-31T17:20:34;2.47;;;1.50;;
8986;SDS011;4529;51.360;12.474;2023-03-31T17:25:38;2.33;;;1.40;;
8986;SDS011;4529;51.360;12.474;2023-03-31T17:30:42;2.60;;;1.60;;
8986;SDS011;4529;51.360;12.474;2023-03-31T17:35:46;1.70;;;1.60;;
8986;SDS011;4529;51.360;12.474;2023-03-31T17:40:50;2.47;;;1.93;;
8986;SDS011;4529;51.360;12.474;2023-03-31T17:46:01;2.63;;;2.00;;
8986;SDS011;4529;51.360;12.474;2023-03-31T17:51:04;2.57;;;1.87;;
8986;SDS011;4529;51.360;12.474;2023-03-31T17:56:08;4.03;;;1.90;;
8986;SDS011;4529;51.360;12.474;2023-03-31T18:01:12;2.27;;;2.07;;
8986;SDS011;4529;51.360;12.474;2023-03-31T18:06:16;4.43;;;1.80;;
8986;SDS011;4529;51.360;12.474;2023-03-31T18:11:20;2.83;;;2.00;;
8986;SDS011;4529;51.360;12.474;2023-03-31T18:16:24;4.63;;;1.70;;
8986;SDS011;4529;51.360;12.474;2023-03-31T18:21:29;1.70;;;1.50;;
8986;SDS011;4529;51.360;12.474;2023-03-31T18:26:32;2.03;;;1.50;;
8986;SDS011;4529;51.360;12.474;2023-03-31T18:31:35;3.77;;;1.67;;
8986;SDS011;4529;51.360;12.474;2023-03-31T18:36:39;2.17;;;1.50;;
8986;SDS011;4529;51.360;12.474;2023-03-31T18:41:43;1.60;;;1.50;;
8986;SDS011;4529;51.360;12.474;2023-03-31T18:46:48;1.83;;;1.50;;
8986;SDS011;4529;51.360;12.474;2023-03-31T18:51:52;3.47;;;1.60;;
8986;SDS011;4529;51.360;12.474;2023-03-31T18:56:57;2.17;;;1.60;;
8986;SDS011;4529;51.360;12.474;2023-03-31T19:02:01;2.50;;;1.80;;
8986;SDS011;4529;51.360;12.474;2023-03-31T19:07:05;2.77;;;2.00;;
8986;SDS011;4529;51.360;12.474;2023-03-31T19:12:10;3.23;;;1.80;;
8986;SDS011;4529;51.360;12.474;2023-03-31T19:17:13;2.67;;;1.90;;
8986;SDS011;4529;51.360;12.474;2023-03-31T19:22:17;2.93;;;1.80;;
8986;SDS011;4529;51.360;12.474;2023-03-31T19:27:20;5.40;;;2.07;;
8986;SDS011;4529;51.360;12.474;2023-03-31T19:32:24;2.77;;;2.20;;
8986;SDS011;4529;51.360;12.474;2023-03-31T19:37:27;2.30;;;2.03;;
8986;SDS011;4529;51.360;12.474;2023-03-31T19:42:32;3.53;;;2.43;;
8986;SDS011;4529;51.360;12.474;2023-03-31T19:47:36;2.33;;;1.90;;
8986;SDS011;4529;51.360;12.474;2023-03-31T19:52:40;4.43;;;1.83;;
8986;SDS011;4529;51.360;12.474;2023-03-31T19:57:44;2.20;;;1.60;;
8986;SDS011;4529;51.360;12.474;2023-03-31T20:02:48;1.80;;;1.67;;
8986;SDS011;4529;51.360;12.474;2023-03-31T20:07:52;4.67;;;1.90;;
8986;SDS011;4529;51.360;12.474;2023-03-31T20:12:56;2.20;;;1.73;;
8986;SDS011;4529;51.360;12.474;2023-03-31T20:18:01;1.83;;;1.40;;
8986;SDS011;4529;51.360;12.474;2023-03-31T20:23:04;1.77;;;1.53;;
8986;SDS011;4529;51.360;12.474;2023-03-31T20:28:09;2.90;;;1.90;;
8986;SDS011;4529;51.360;12.474;2023-03-31T20:33:13;5.17;;;1.50;;
8986;SDS011;4529;51.360;12.474;2023-03-31T20:38:17;1.63;;;1.40;;
8986;SDS011;4529;51.360;12.474;2023-03-31T20:43:21;3.37;;;1.53;;
8986;SDS011;4529;51.360;12.474;2023-03-31T20:48:25;2.10;;;1.53;;
8986;SDS011;4529;51.360;12.474;2023-03-31T20:53:29;3.33;;;1.57;;
8986;SDS011;4529;51.360;12.474;2023-03-31T20:58:33;4.77;;;1.60;;
8986;SDS011;4529;51.360;12.474;2023-03-31T21:03:38;1.57;;;1.30;;
8986;SDS011;4529;51.360;12.474;2023-03-31T21:08:42;4.13;;;1.60;;
8986;SDS011;4529;51.360;12.474;2023-03-31T21:13:46;1.70;;;1.27;;
8986;SDS011;4529;51.360;12.474;2023-03-31T21:18:50;1.40;;;1.30;;
8986;SDS011;4529;51.360;12.474;2023-03-31T21:23:54;2.87;;;1.30;;
8986;SDS011;4529;51.360;12.474;2023-03-31T21:28:58;3.83;;;1.60;;
8986;SDS011;4529;51.360;12.474;2023-03-31T21:34:03;2.73;;;1.27;;
8986;SDS011;4529;51.360;12.474;2023-03-31T21:39:06;3.03;;;1.23;;
8986;SDS011;4529;51.360;12.474;2023-03-31T21:44:09;1.70;;;1.43;;
8986;SDS011;4529;51.360;12.474;2023-03-31T21:49:13;1.43;;;1.23;;
8986;SDS011;4529;51.360;12.474;2023-03-31T21:54:16;3.73;;;1.50;;
8986;SDS011;4529;51.360;12.474;2023-03-31T21:59:20;1.50;;;1.30;;
8986;SDS011;4529;51.360;12.474;2023-03-31T22:04:23;4.90;;;1.73;;
8986;SDS011;4529;51.360;12.474;2023-03-31T22:09:27;2.63;;;1.60;;
8986;SDS011;4529;51.360;12.474;2023-03-31T22:14:30;3.60;;;1.80;;
8986;SDS011;4529;51.360;12.474;2023-03-31T22:19:34;1.57;;;1.40;;
8986;SDS011;4529;51.360;12.474;2023-03-31T22:24:37;2.53;;;1.50;;
8986;SDS011;4529;51.360;12.474;2023-03-31T22:29:41;3.37;;;1.50;;
8986;SDS011;4529;51.360;12.474;2023-03-31T22:34:44;3.20;;;1.30;;
8986;SDS011;4529;51.360;12.474;2023-03-31T22:39:48;2.87;;;1.27;;
8986;SDS011;4529;51.360;12.474;2023-03-31T22:44:51;1.40;;;1.30;;
8986;SDS011;4529;51.360;12.474;2023-03-31T22:49:54;3.90;;;1.70;;
8986;SDS011;4529;51.360;12.474;2023-03-31T22:54:58;2.23;;;1.33;;
8986;SDS011;4529;51.360;12.474;2023-03-31T23:00:02;1.37;;;1.20;;
8986;SDS011;4529;51.360;12.474;2023-03-31T23:05:05;2.40;;;1.20;;
8986;SDS011;4529;51.360;12.474;2023-03-31T23:10:09;1.30;;;1.20;;
8986;SDS011;4529;51.360;12.474;2023-03-31T23:15:13;1.80;;;1.37;;
8986;SDS011;4529;51.360;12.474;2023-03-31T23:20:16;1.60;;;1.30;;
8986;SDS011;4529;51.360;12.474;2023-03-31T23:25:19;1.60;;;1.47;;
8986;SDS011;4529;51.360;12.474;2023-03-31T23:30:23;1.80;;;1.40;;
8986;SDS011;4529;51.360;12.474;2023-03-31T23:35:27;1.43;;;1.10;;
8986;SDS011;4529;51.360;12.474;2023-03-31T23:40:31;3.20;;;1.07;;
8986;SDS011;4529;51.360;12.474;2023-03-31T23:45:35;1.60;;;1.20;;
8986;SDS011;4529;51.360;12.474;2023-03-31T23:50:39;1.47;;;1.30;;
8986;SDS011;4529;51.360;12.474;2023-03-31T23:55:51;1.30;;;1.20;;
